sensor_id;sensor_type;location;lat;lon;timestamp;P1;durP1;ratioP1;P2;durP2;ratioP2
70733;SDS011;58320;48.804;9.252;2022-09-01T00:01:43;29.95;;;19.38;;
70733;SDS011;58320;48.804;9.252;2022-09-01T00:04:16;31.33;;;19.53;;
70733;SDS011;58320;48.804;9.252;2022-09-01T00:06:50;23.75;;;16.20;;
70733;SDS011;58320;48.804;9.252;2022-09-01T00:09:19;26.00;;;15.88;;
70733;SDS011;58320;48.804;9.252;2022-09-01T00:11:48;27.77;;;18.60;;
70733;SDS011;58320;48.804;9.252;2022-09-01T00:14:19;33.95;;;21.23;;
70733;SDS011;58320;48.804;9.252;2022-09-01T00:16:52;31.37;;;20.57;;
70733;SDS011;58320;48.804;9.252;2022-09-01T00:19:18;35.17;;;20.20;;
70733;SDS011;58320;48.804;9.252;2022-09-01T00:21:46;34.92;;;21.85;;
70733;SDS011;58320;48.804;9.252;2022-09-01T00:24:13;33.50;;;21.30;;
70733;SDS011;58320;48.804;9.252;2022-09-01T00:26:41;43.28;;;25.10;;
70733;SDS011;58320;48.804;9.252;2022-09-01T00:29:08;32.30;;;20.23;;
70733;SDS011;58320;48.804;9.252;2022-09-01T00:31:34;41.55;;;24.60;;
70733;SDS011;58320;48.804;9.252;2022-09-01T00:34:01;38.90;;;24.20;;
70733;SDS011;58320;48.804;9.252;2022-09-01T00:36:28;37.60;;;23.52;;
70733;SDS011;58320;48.804;9.252;2022-09-01T00:38:54;34.90;;;21.35;;
70733;SDS011;58320;48.804;9.252;2022-09-01T00:41:21;32.50;;;21.70;;
70733;SDS011;58320;48.804;9.252;2022-09-01T00:43:51;36.90;;;24.10;;
70733;SDS011;58320;48.804;9.252;2022-09-01T00:46:42;38.90;;;22.42;;
70733;SDS011;58320;48.804;9.252;2022-09-01T00:49:15;31.95;;;21.80;;
70733;SDS011;58320;48.804;9.252;2022-09-01T00:51:50;33.42;;;20.33;;
70733;SDS011;58320;48.804;9.252;2022-09-01T00:54:22;30.57;;;19.53;;
70733;SDS011;58320;48.804;9.252;2022-09-01T00:56:53;28.50;;;18.38;;
70733;SDS011;58320;48.804;9.252;2022-09-01T00:59:21;27.77;;;17.65;;
70733;SDS011;58320;48.804;9.252;2022-09-01T01:01:48;26.00;;;17.15;;
70733;SDS011;58320;48.804;9.252;2022-09-01T01:04:14;27.02;;;17.38;;
70733;SDS011;58320;48.804;9.252;2022-09-01T01:06:45;25.43;;;17.40;;
70733;SDS011;58320;48.804;9.252;2022-09-01T01:09:32;25.08;;;16.40;;
70733;SDS011;58320;48.804;9.252;2022-09-01T01:12:01;25.50;;;16.92;;
70733;SDS011;58320;48.804;9.252;2022-09-01T01:14:29;22.67;;;15.82;;
70733;SDS011;58320;48.804;9.252;2022-09-01T01:16:59;24.63;;;15.77;;
70733;SDS011;58320;48.804;9.252;2022-09-01T01:28:18;20.08;;;13.68;;
70733;SDS011;58320;48.804;9.252;2022-09-01T01:30:56;23.08;;;16.08;;
70733;SDS011;58320;48.804;9.252;2022-09-01T01:33:50;18.97;;;13.00;;
70733;SDS011;58320;48.804;9.252;2022-09-01T01:36:22;25.33;;;15.98;;
70733;SDS011;58320;48.804;9.252;2022-09-01T01:39:17;26.00;;;16.15;;
70733;SDS011;58320;48.804;9.252;2022-09-01T01:41:50;25.45;;;17.00;;
70733;SDS011;58320;48.804;9.252;2022-09-01T01:44:19;22.08;;;14.90;;
70733;SDS011;58320;48.804;9.252;2022-09-01T01:46:51;26.20;;;15.73;;
70733;SDS011;58320;48.804;9.252;2022-09-01T01:49:20;24.45;;;16.10;;
70733;SDS011;58320;48.804;9.252;2022-09-01T01:51:50;25.35;;;16.08;;
70733;SDS011;58320;48.804;9.252;2022-09-01T01:54:20;22.75;;;15.18;;
70733;SDS011;58320;48.804;9.252;2022-09-01T01:56:47;26.25;;;14.98;;
70733;SDS011;58320;48.804;9.252;2022-09-01T01:59:13;27.53;;;15.80;;
70733;SDS011;58320;48.804;9.252;2022-09-01T02:01:41;21.45;;;14.32;;
70733;SDS011;58320;48.804;9.252;2022-09-01T02:04:15;22.27;;;15.13;;
70733;SDS011;58320;48.804;9.252;2022-09-01T02:06:44;25.38;;;17.10;;
70733;SDS011;58320;48.804;9.252;2022-09-01T02:09:12;26.73;;;17.25;;
70733;SDS011;58320;48.804;9.252;2022-09-01T02:11:40;25.20;;;16.87;;
70733;SDS011;58320;48.804;9.252;2022-09-01T02:14:08;26.33;;;16.52;;
70733;SDS011;58320;48.804;9.252;2022-09-01T02:16:34;27.05;;;15.93;;
70733;SDS011;58320;48.804;9.252;2022-09-01T02:19:02;21.95;;;14.55;;
70733;SDS011;58320;48.804;9.252;2022-09-01T02:21:31;23.10;;;14.90;;
70733;SDS011;58320;48.804;9.252;2022-09-01T02:23:58;24.33;;;15.87;;
70733;SDS011;58320;48.804;9.252;2022-09-01T02:26:31;22.35;;;15.75;;
70733;SDS011;58320;48.804;9.252;2022-09-01T02:29:02;24.23;;;15.13;;
70733;SDS011;58320;48.804;9.252;2022-09-01T02:31:33;22.15;;;15.52;;
70733;SDS011;58320;48.804;9.252;2022-09-01T02:34:04;23.00;;;15.02;;
70733;SDS011;58320;48.804;9.252;2022-09-01T02:36:34;21.07;;;14.20;;
70733;SDS011;58320;48.804;9.252;2022-09-01T02:39:08;19.60;;;13.77;;
70733;SDS011;58320;48.804;9.252;2022-09-01T02:41:35;18.77;;;13.18;;
70733;SDS011;58320;48.804;9.252;2022-09-01T02:44:04;20.63;;;13.57;;
70733;SDS011;58320;48.804;9.252;2022-09-01T02:46:35;21.48;;;14.50;;
70733;SDS011;58320;48.804;9.252;2022-09-01T02:49:40;22.87;;;15.27;;
70733;SDS011;58320;48.804;9.252;2022-09-01T02:52:00;27.30;;;17.83;;
70733;SDS011;58320;48.804;9.252;2022-09-01T02:54:27;30.85;;;19.75;;
70733;SDS011;58320;48.804;9.252;2022-09-01T02:56:54;34.50;;;18.55;;
70733;SDS011;58320;48.804;9.252;2022-09-01T02:59:22;28.20;;;17.52;;
70733;SDS011;58320;48.804;9.252;2022-09-01T03:01:53;38.60;;;21.50;;
70733;SDS011;58320;48.804;9.252;2022-09-01T03:04:21;33.08;;;20.38;;
70733;SDS011;58320;48.804;9.252;2022-09-01T03:06:48;32.92;;;20.67;;
70733;SDS011;58320;48.804;9.252;2022-09-01T03:09:18;31.00;;;19.63;;
70733;SDS011;58320;48.804;9.252;2022-09-01T03:11:46;36.33;;;22.23;;
70733;SDS011;58320;48.804;9.252;2022-09-01T03:14:14;35.87;;;21.53;;
70733;SDS011;58320;48.804;9.252;2022-09-01T03:16:41;37.35;;;22.20;;
70733;SDS011;58320;48.804;9.252;2022-09-01T03:19:07;36.83;;;22.50;;
70733;SDS011;58320;48.804;9.252;2022-09-01T03:21:35;32.15;;;20.52;;
70733;SDS011;58320;48.804;9.252;2022-09-01T03:24:05;32.63;;;19.75;;
70733;SDS011;58320;48.804;9.252;2022-09-01T03:26:38;29.90;;;17.80;;
70733;SDS011;58320;48.804;9.252;2022-09-01T03:29:05;29.27;;;18.25;;
70733;SDS011;58320;48.804;9.252;2022-09-01T03:31:32;29.40;;;18.17;;
70733;SDS011;58320;48.804;9.252;2022-09-01T03:33:59;30.27;;;19.23;;
70733;SDS011;58320;48.804;9.252;2022-09-01T03:36:27;27.85;;;17.25;;
70733;SDS011;58320;48.804;9.252;2022-09-01T03:38:55;29.47;;;17.90;;
70733;SDS011;58320;48.804;9.252;2022-09-01T03:41:25;32.85;;;18.45;;
70733;SDS011;58320;48.804;9.252;2022-09-01T03:43:54;29.33;;;18.48;;
70733;SDS011;58320;48.804;9.252;2022-09-01T03:46:22;28.10;;;17.45;;
70733;SDS011;58320;48.804;9.252;2022-09-01T03:48:52;27.52;;;17.48;;
70733;SDS011;58320;48.804;9.252;2022-09-01T03:51:22;31.33;;;17.50;;
70733;SDS011;58320;48.804;9.252;2022-09-01T03:53:50;26.73;;;16.73;;
70733;SDS011;58320;48.804;9.252;2022-09-01T03:56:22;26.25;;;16.30;;
70733;SDS011;58320;48.804;9.252;2022-09-01T03:58:50;27.60;;;17.40;;
70733;SDS011;58320;48.804;9.252;2022-09-01T04:01:17;28.17;;;16.80;;
70733;SDS011;58320;48.804;9.252;2022-09-01T04:03:43;31.20;;;18.60;;
70733;SDS011;58320;48.804;9.252;2022-09-01T04:06:13;34.28;;;20.33;;
70733;SDS011;58320;48.804;9.252;2022-09-01T04:08:42;33.63;;;20.23;;
70733;SDS011;58320;48.804;9.252;2022-09-01T04:11:13;36.35;;;21.52;;
70733;SDS011;58320;48.804;9.252;2022-09-01T04:13:47;35.65;;;21.27;;
70733;SDS011;58320;48.804;9.252;2022-09-01T04:16:22;35.50;;;21.30;;
70733;SDS011;58320;48.804;9.252;2022-09-01T04:19:12;34.63;;;20.33;;
70733;SDS011;58320;48.804;9.252;2022-09-01T04:21:44;33.60;;;20.75;;
70733;SDS011;58320;48.804;9.252;2022-09-01T04:24:18;34.85;;;20.65;;
70733;SDS011;58320;48.804;9.252;2022-09-01T04:26:48;34.88;;;20.38;;
70733;SDS011;58320;48.804;9.252;2022-09-01T04:29:16;33.57;;;20.57;;
70733;SDS011;58320;48.804;9.252;2022-09-01T04:31:43;35.17;;;20.48;;
70733;SDS011;58320;48.804;9.252;2022-09-01T04:34:12;34.53;;;19.17;;
70733;SDS011;58320;48.804;9.252;2022-09-01T04:36:42;37.28;;;20.13;;
70733;SDS011;58320;48.804;9.252;2022-09-01T04:39:09;32.87;;;18.40;;
70733;SDS011;58320;48.804;9.252;2022-09-01T04:41:38;32.00;;;18.73;;
70733;SDS011;58320;48.804;9.252;2022-09-01T04:44:10;33.55;;;18.65;;
70733;SDS011;58320;48.804;9.252;2022-09-01T04:46:38;30.23;;;18.55;;
70733;SDS011;58320;48.804;9.252;2022-09-01T04:49:07;28.98;;;17.02;;
70733;SDS011;58320;48.804;9.252;2022-09-01T04:51:38;28.37;;;16.37;;
70733;SDS011;58320;48.804;9.252;2022-09-01T04:54:06;30.02;;;19.70;;
70733;SDS011;58320;48.804;9.252;2022-09-01T04:56:36;28.35;;;18.35;;
70733;SDS011;58320;48.804;9.252;2022-09-01T04:59:02;25.05;;;15.18;;
70733;SDS011;58320;48.804;9.252;2022-09-01T05:01:31;28.95;;;16.67;;
70733;SDS011;58320;48.804;9.252;2022-09-01T05:04:07;30.10;;;18.37;;
70733;SDS011;58320;48.804;9.252;2022-09-01T05:06:38;27.08;;;16.92;;
70733;SDS011;58320;48.804;9.252;2022-09-01T05:09:06;28.10;;;17.45;;
70733;SDS011;58320;48.804;9.252;2022-09-01T05:11:35;30.50;;;18.27;;
70733;SDS011;58320;48.804;9.252;2022-09-01T05:14:02;26.42;;;17.23;;
70733;SDS011;58320;48.804;9.252;2022-09-01T05:16:29;29.00;;;18.03;;
70733;SDS011;58320;48.804;9.252;2022-09-01T05:18:55;28.27;;;17.33;;
70733;SDS011;58320;48.804;9.252;2022-09-01T05:21:22;28.05;;;16.65;;
70733;SDS011;58320;48.804;9.252;2022-09-01T05:23:52;28.02;;;16.60;;
70733;SDS011;58320;48.804;9.252;2022-09-01T05:26:23;27.95;;;16.50;;
70733;SDS011;58320;48.804;9.252;2022-09-01T05:28:53;28.07;;;17.60;;
70733;SDS011;58320;48.804;9.252;2022-09-01T05:31:23;26.27;;;17.02;;
70733;SDS011;58320;48.804;9.252;2022-09-01T05:33:53;23.52;;;16.17;;
70733;SDS011;58320;48.804;9.252;2022-09-01T05:36:22;29.13;;;17.60;;
70733;SDS011;58320;48.804;9.252;2022-09-01T05:38:49;28.60;;;16.27;;
70733;SDS011;58320;48.804;9.252;2022-09-01T05:41:16;28.17;;;16.83;;
70733;SDS011;58320;48.804;9.252;2022-09-01T05:43:45;25.92;;;16.95;;
70733;SDS011;58320;48.804;9.252;2022-09-01T05:46:23;24.85;;;15.50;;
70733;SDS011;58320;48.804;9.252;2022-09-01T05:48:52;25.63;;;15.95;;
70733;SDS011;58320;48.804;9.252;2022-09-01T05:51:20;23.63;;;15.30;;
70733;SDS011;58320;48.804;9.252;2022-09-01T05:53:51;23.27;;;15.10;;
70733;SDS011;58320;48.804;9.252;2022-09-01T05:56:23;26.05;;;15.80;;
70733;SDS011;58320;48.804;9.252;2022-09-01T05:58:51;22.23;;;15.10;;
70733;SDS011;58320;48.804;9.252;2022-09-01T06:01:18;23.92;;;15.38;;
70733;SDS011;58320;48.804;9.252;2022-09-01T06:03:49;24.38;;;15.73;;
70733;SDS011;58320;48.804;9.252;2022-09-01T06:06:21;24.30;;;15.73;;
70733;SDS011;58320;48.804;9.252;2022-09-01T06:08:49;26.35;;;16.52;;
70733;SDS011;58320;48.804;9.252;2022-09-01T06:11:16;25.85;;;14.00;;
70733;SDS011;58320;48.804;9.252;2022-09-01T06:13:43;22.98;;;15.60;;
70733;SDS011;58320;48.804;9.252;2022-09-01T06:16:14;22.38;;;15.10;;
70733;SDS011;58320;48.804;9.252;2022-09-01T06:18:41;22.10;;;14.13;;
70733;SDS011;58320;48.804;9.252;2022-09-01T06:21:08;22.58;;;15.13;;
70733;SDS011;58320;48.804;9.252;2022-09-01T06:23:39;20.95;;;14.20;;
70733;SDS011;58320;48.804;9.252;2022-09-01T06:26:07;21.35;;;13.15;;
70733;SDS011;58320;48.804;9.252;2022-09-01T06:28:44;17.88;;;12.80;;
70733;SDS011;58320;48.804;9.252;2022-09-01T06:31:12;18.67;;;12.33;;
70733;SDS011;58320;48.804;9.252;2022-09-01T06:33:39;19.80;;;13.00;;
70733;SDS011;58320;48.804;9.252;2022-09-01T06:36:08;20.45;;;12.02;;
70733;SDS011;58320;48.804;9.252;2022-09-01T06:38:34;18.90;;;12.32;;
70733;SDS011;58320;48.804;9.252;2022-09-01T06:41:01;17.60;;;11.83;;
70733;SDS011;58320;48.804;9.252;2022-09-01T06:43:32;16.20;;;11.43;;
70733;SDS011;58320;48.804;9.252;2022-09-01T06:46:00;16.20;;;11.05;;
70733;SDS011;58320;48.804;9.252;2022-09-01T06:48:27;14.50;;;9.35;;
70733;SDS011;58320;48.804;9.252;2022-09-01T06:50:57;15.03;;;11.03;;
70733;SDS011;58320;48.804;9.252;2022-09-01T06:53:30;15.20;;;11.02;;
70733;SDS011;58320;48.804;9.252;2022-09-01T06:55:58;14.20;;;10.30;;
70733;SDS011;58320;48.804;9.252;2022-09-01T06:58:24;20.48;;;11.80;;
70733;SDS011;58320;48.804;9.252;2022-09-01T07:00:50;13.48;;;8.77;;
70733;SDS011;58320;48.804;9.252;2022-09-01T07:03:17;12.40;;;8.90;;
70733;SDS011;58320;48.804;9.252;2022-09-01T07:05:44;16.05;;;10.98;;
70733;SDS011;58320;48.804;9.252;2022-09-01T07:08:12;13.07;;;9.68;;
70733;SDS011;58320;48.804;9.252;2022-09-01T07:10:44;14.00;;;9.90;;
70733;SDS011;58320;48.804;9.252;2022-09-01T07:13:15;14.20;;;10.40;;
70733;SDS011;58320;48.804;9.252;2022-09-01T07:15:53;14.10;;;9.57;;
70733;SDS011;58320;48.804;9.252;2022-09-01T07:18:25;11.40;;;8.43;;
70733;SDS011;58320;48.804;9.252;2022-09-01T07:20:53;11.48;;;8.15;;
70733;SDS011;58320;48.804;9.252;2022-09-01T07:23:19;12.63;;;8.55;;
70733;SDS011;58320;48.804;9.252;2022-09-01T07:25:47;13.10;;;9.02;;
70733;SDS011;58320;48.804;9.252;2022-09-01T07:28:18;12.47;;;8.70;;
70733;SDS011;58320;48.804;9.252;2022-09-01T07:30:46;12.80;;;8.85;;
70733;SDS011;58320;48.804;9.252;2022-09-01T07:33:15;11.10;;;8.20;;
70733;SDS011;58320;48.804;9.252;2022-09-01T07:35:42;11.60;;;8.45;;
70733;SDS011;58320;48.804;9.252;2022-09-01T07:38:08;10.40;;;7.73;;
70733;SDS011;58320;48.804;9.252;2022-09-01T07:40:35;11.25;;;8.13;;
70733;SDS011;58320;48.804;9.252;2022-09-01T07:43:03;11.40;;;7.75;;
70733;SDS011;58320;48.804;9.252;2022-09-01T07:45:36;10.60;;;7.75;;
70733;SDS011;58320;48.804;9.252;2022-09-01T07:48:04;12.75;;;7.82;;
70733;SDS011;58320;48.804;9.252;2022-09-01T07:50:35;9.70;;;7.07;;
70733;SDS011;58320;48.804;9.252;2022-09-01T07:53:08;11.20;;;7.97;;
70733;SDS011;58320;48.804;9.252;2022-09-01T07:55:38;11.65;;;8.40;;
70733;SDS011;58320;48.804;9.252;2022-09-01T07:58:05;10.43;;;7.40;;
70733;SDS011;58320;48.804;9.252;2022-09-01T08:00:31;11.68;;;8.32;;
70733;SDS011;58320;48.804;9.252;2022-09-01T08:02:58;11.02;;;7.28;;
70733;SDS011;58320;48.804;9.252;2022-09-01T08:05:24;10.83;;;6.70;;
70733;SDS011;58320;48.804;9.252;2022-09-01T08:07:51;10.77;;;7.45;;
70733;SDS011;58320;48.804;9.252;2022-09-01T08:10:18;11.65;;;7.88;;
70733;SDS011;58320;48.804;9.252;2022-09-01T08:12:45;11.18;;;7.97;;
70733;SDS011;58320;48.804;9.252;2022-09-01T08:15:11;11.38;;;7.85;;
70733;SDS011;58320;48.804;9.252;2022-09-01T08:17:37;11.10;;;8.00;;
70733;SDS011;58320;48.804;9.252;2022-09-01T08:20:04;10.20;;;7.50;;
70733;SDS011;58320;48.804;9.252;2022-09-01T08:22:34;10.90;;;7.32;;
70733;SDS011;58320;48.804;9.252;2022-09-01T08:25:03;10.25;;;7.47;;
70733;SDS011;58320;48.804;9.252;2022-09-01T08:27:31;11.07;;;7.80;;
70733;SDS011;58320;48.804;9.252;2022-09-01T08:30:01;12.03;;;6.73;;
70733;SDS011;58320;48.804;9.252;2022-09-01T08:32:33;11.20;;;7.53;;
70733;SDS011;58320;48.804;9.252;2022-09-01T08:35:00;11.82;;;7.70;;
70733;SDS011;58320;48.804;9.252;2022-09-01T08:37:29;8.73;;;6.70;;
70733;SDS011;58320;48.804;9.252;2022-09-01T08:39:55;9.57;;;7.03;;
70733;SDS011;58320;48.804;9.252;2022-09-01T08:47:16;8.10;;;5.50;;
70733;SDS011;58320;48.804;9.252;2022-09-01T08:49:43;8.77;;;5.80;;
70733;SDS011;58320;48.804;9.252;2022-09-01T08:55:01;8.47;;;5.83;;
70733;SDS011;58320;48.804;9.252;2022-09-01T08:57:51;8.02;;;5.85;;
70733;SDS011;58320;48.804;9.252;2022-09-01T09:00:23;8.05;;;5.93;;
70733;SDS011;58320;48.804;9.252;2022-09-01T09:02:56;11.68;;;6.30;;
70733;SDS011;58320;48.804;9.252;2022-09-01T09:16:57;6.68;;;4.97;;
70733;SDS011;58320;48.804;9.252;2022-09-01T09:19:34;8.38;;;5.47;;
70733;SDS011;58320;48.804;9.252;2022-09-01T09:22:10;7.68;;;5.47;;
70733;SDS011;58320;48.804;9.252;2022-09-01T09:27:16;7.03;;;5.10;;
70733;SDS011;58320;48.804;9.252;2022-09-01T09:30:04;7.80;;;5.32;;
70733;SDS011;58320;48.804;9.252;2022-09-01T09:43:37;6.90;;;5.20;;
70733;SDS011;58320;48.804;9.252;2022-09-01T09:46:23;7.32;;;5.30;;
70733;SDS011;58320;48.804;9.252;2022-09-01T09:51:53;7.22;;;5.13;;
70733;SDS011;58320;48.804;9.252;2022-09-01T09:54:35;7.93;;;5.32;;
70733;SDS011;58320;48.804;9.252;2022-09-01T09:59:46;5.60;;;4.38;;
70733;SDS011;58320;48.804;9.252;2022-09-01T10:02:41;6.45;;;4.93;;
70733;SDS011;58320;48.804;9.252;2022-09-01T10:05:43;7.05;;;5.13;;
70733;SDS011;58320;48.804;9.252;2022-09-01T10:08:10;7.88;;;5.47;;
70733;SDS011;58320;48.804;9.252;2022-09-01T10:10:44;6.60;;;5.07;;
70733;SDS011;58320;48.804;9.252;2022-09-01T10:13:21;6.72;;;4.80;;
70733;SDS011;58320;48.804;9.252;2022-09-01T10:15:55;6.60;;;4.60;;
70733;SDS011;58320;48.804;9.252;2022-09-01T10:18:43;5.55;;;4.30;;
70733;SDS011;58320;48.804;9.252;2022-09-01T10:21:14;6.22;;;4.65;;
70733;SDS011;58320;48.804;9.252;2022-09-01T10:23:46;6.50;;;4.50;;
70733;SDS011;58320;48.804;9.252;2022-09-01T10:26:13;5.77;;;4.33;;
70733;SDS011;58320;48.804;9.252;2022-09-01T10:28:57;4.95;;;3.95;;
70733;SDS011;58320;48.804;9.252;2022-09-01T10:31:32;7.15;;;4.22;;
70733;SDS011;58320;48.804;9.252;2022-09-01T10:34:00;5.75;;;4.10;;
70733;SDS011;58320;48.804;9.252;2022-09-01T10:36:28;5.53;;;4.05;;
70733;SDS011;58320;48.804;9.252;2022-09-01T10:38:56;5.37;;;4.07;;
70733;SDS011;58320;48.804;9.252;2022-09-01T10:44:26;6.10;;;4.63;;
70733;SDS011;58320;48.804;9.252;2022-09-01T10:47:32;5.57;;;4.00;;
70733;SDS011;58320;48.804;9.252;2022-09-01T10:53:01;5.90;;;4.17;;
70733;SDS011;58320;48.804;9.252;2022-09-01T10:55:34;4.97;;;3.60;;
70733;SDS011;58320;48.804;9.252;2022-09-01T10:58:18;5.70;;;4.05;;
70733;SDS011;58320;48.804;9.252;2022-09-01T11:00:58;7.88;;;4.43;;
70733;SDS011;58320;48.804;9.252;2022-09-01T11:10:56;5.57;;;4.03;;
70733;SDS011;58320;48.804;9.252;2022-09-01T11:13:54;6.13;;;4.28;;
70733;SDS011;58320;48.804;9.252;2022-09-01T11:27:06;5.23;;;3.93;;
70733;SDS011;58320;48.804;9.252;2022-09-01T11:29:56;5.97;;;3.77;;
70733;SDS011;58320;48.804;9.252;2022-09-01T11:32:24;5.70;;;4.00;;
70733;SDS011;58320;48.804;9.252;2022-09-01T11:34:59;6.28;;;3.80;;
70733;SDS011;58320;48.804;9.252;2022-09-01T11:37:41;5.68;;;3.67;;
70733;SDS011;58320;48.804;9.252;2022-09-01T11:40:07;4.72;;;3.60;;
70733;SDS011;58320;48.804;9.252;2022-09-01T11:42:42;5.13;;;3.80;;
70733;SDS011;58320;48.804;9.252;2022-09-01T11:45:16;5.37;;;3.93;;
70733;SDS011;58320;48.804;9.252;2022-09-01T11:47:47;5.25;;;3.97;;
70733;SDS011;58320;48.804;9.252;2022-09-01T11:53:02;5.32;;;4.00;;
70733;SDS011;58320;48.804;9.252;2022-09-01T11:55:33;5.15;;;4.18;;
70733;SDS011;58320;48.804;9.252;2022-09-01T11:58:13;4.95;;;3.88;;
70733;SDS011;58320;48.804;9.252;2022-09-01T12:01:10;7.13;;;4.00;;
70733;SDS011;58320;48.804;9.252;2022-09-01T12:03:37;5.43;;;4.07;;
70733;SDS011;58320;48.804;9.252;2022-09-01T12:06:04;4.57;;;3.30;;
70733;SDS011;58320;48.804;9.252;2022-09-01T12:08:34;5.40;;;4.07;;
70733;SDS011;58320;48.804;9.252;2022-09-01T12:11:17;5.28;;;3.78;;
70733;SDS011;58320;48.804;9.252;2022-09-01T12:13:56;6.60;;;3.88;;
70733;SDS011;58320;48.804;9.252;2022-09-01T12:16:25;4.20;;;3.30;;
70733;SDS011;58320;48.804;9.252;2022-09-01T12:18:54;5.00;;;3.47;;
70733;SDS011;58320;48.804;9.252;2022-09-01T12:21:30;5.05;;;3.42;;
70733;SDS011;58320;48.804;9.252;2022-09-01T12:26:45;4.60;;;3.55;;
70733;SDS011;58320;48.804;9.252;2022-09-01T12:29:13;4.78;;;3.05;;
70733;SDS011;58320;48.804;9.252;2022-09-01T12:31:41;3.83;;;3.13;;
70733;SDS011;58320;48.804;9.252;2022-09-01T12:34:27;4.28;;;3.42;;
70733;SDS011;58320;48.804;9.252;2022-09-01T12:37:06;4.10;;;3.10;;
70733;SDS011;58320;48.804;9.252;2022-09-01T12:39:39;4.33;;;3.13;;
70733;SDS011;58320;48.804;9.252;2022-09-01T12:44:47;6.13;;;3.33;;
70733;SDS011;58320;48.804;9.252;2022-09-01T12:50:41;4.30;;;3.63;;
70733;SDS011;58320;48.804;9.252;2022-09-01T12:52:50;5.80;;;3.40;;
70733;SDS011;58320;48.804;9.252;2022-09-01T12:57:58;4.13;;;3.15;;
70733;SDS011;58320;48.804;9.252;2022-09-01T13:00:33;5.27;;;3.40;;
70733;SDS011;58320;48.804;9.252;2022-09-01T13:03:06;5.53;;;3.50;;
70733;SDS011;58320;48.804;9.252;2022-09-01T13:05:45;4.60;;;3.90;;
70733;SDS011;58320;48.804;9.252;2022-09-01T13:08:17;5.68;;;4.15;;
70733;SDS011;58320;48.804;9.252;2022-09-01T13:11:02;4.68;;;3.95;;
70733;SDS011;58320;48.804;9.252;2022-09-01T13:13:33;5.13;;;4.15;;
70733;SDS011;58320;48.804;9.252;2022-09-01T13:15:59;4.95;;;3.92;;
70733;SDS011;58320;48.804;9.252;2022-09-01T13:18:32;5.15;;;3.97;;
70733;SDS011;58320;48.804;9.252;2022-09-01T13:20:59;4.17;;;3.57;;
70733;SDS011;58320;48.804;9.252;2022-09-01T13:23:25;4.83;;;3.67;;
70733;SDS011;58320;48.804;9.252;2022-09-01T13:25:52;5.78;;;3.88;;
70733;SDS011;58320;48.804;9.252;2022-09-01T13:28:18;5.20;;;3.78;;
70733;SDS011;58320;48.804;9.252;2022-09-01T13:30:49;4.88;;;4.00;;
70733;SDS011;58320;48.804;9.252;2022-09-01T13:33:21;5.05;;;4.07;;
70733;SDS011;58320;48.804;9.252;2022-09-01T13:35:47;4.88;;;3.65;;
70733;SDS011;58320;48.804;9.252;2022-09-01T13:38:14;4.78;;;3.78;;
70733;SDS011;58320;48.804;9.252;2022-09-01T13:40:41;4.70;;;3.78;;
70733;SDS011;58320;48.804;9.252;2022-09-01T13:43:11;4.73;;;3.47;;
70733;SDS011;58320;48.804;9.252;2022-09-01T13:45:43;6.10;;;3.70;;
70733;SDS011;58320;48.804;9.252;2022-09-01T13:48:10;4.28;;;3.70;;
70733;SDS011;58320;48.804;9.252;2022-09-01T13:50:36;4.30;;;3.20;;
70733;SDS011;58320;48.804;9.252;2022-09-01T13:53:03;4.13;;;3.10;;
70733;SDS011;58320;48.804;9.252;2022-09-01T13:55:32;3.90;;;3.08;;
70733;SDS011;58320;48.804;9.252;2022-09-01T13:58:01;4.70;;;3.10;;
70733;SDS011;58320;48.804;9.252;2022-09-01T14:00:28;4.38;;;3.22;;
70733;SDS011;58320;48.804;9.252;2022-09-01T14:03:02;3.87;;;3.00;;
70733;SDS011;58320;48.804;9.252;2022-09-01T14:05:33;4.30;;;3.33;;
70733;SDS011;58320;48.804;9.252;2022-09-01T14:08:04;4.32;;;3.40;;
70733;SDS011;58320;48.804;9.252;2022-09-01T14:10:36;4.32;;;3.33;;
70733;SDS011;58320;48.804;9.252;2022-09-01T14:13:06;3.88;;;3.20;;
70733;SDS011;58320;48.804;9.252;2022-09-01T14:15:33;5.05;;;3.30;;
70733;SDS011;58320;48.804;9.252;2022-09-01T14:17:59;4.47;;;3.15;;
70733;SDS011;58320;48.804;9.252;2022-09-01T14:20:27;4.30;;;3.45;;
70733;SDS011;58320;48.804;9.252;2022-09-01T14:23:06;7.53;;;4.10;;
70733;SDS011;58320;48.804;9.252;2022-09-01T14:25:34;4.73;;;3.67;;
70733;SDS011;58320;48.804;9.252;2022-09-01T14:28:03;4.68;;;3.58;;
70733;SDS011;58320;48.804;9.252;2022-09-01T14:30:30;5.45;;;4.20;;
70733;SDS011;58320;48.804;9.252;2022-09-01T14:33:00;4.55;;;3.80;;
70733;SDS011;58320;48.804;9.252;2022-09-01T14:35:28;4.63;;;3.80;;
70733;SDS011;58320;48.804;9.252;2022-09-01T14:37:57;6.88;;;3.80;;
70733;SDS011;58320;48.804;9.252;2022-09-01T14:40:23;4.47;;;3.30;;
70733;SDS011;58320;48.804;9.252;2022-09-01T14:42:49;4.60;;;3.35;;
70733;SDS011;58320;48.804;9.252;2022-09-01T14:45:21;4.30;;;3.38;;
70733;SDS011;58320;48.804;9.252;2022-09-01T14:47:52;4.53;;;3.35;;
70733;SDS011;58320;48.804;9.252;2022-09-01T14:50:22;4.78;;;3.33;;
70733;SDS011;58320;48.804;9.252;2022-09-01T14:52:50;4.32;;;3.20;;
70733;SDS011;58320;48.804;9.252;2022-09-01T14:55:19;3.83;;;2.97;;
70733;SDS011;58320;48.804;9.252;2022-09-01T14:57:47;5.53;;;2.80;;
70733;SDS011;58320;48.804;9.252;2022-09-01T15:00:14;4.90;;;3.00;;
70733;SDS011;58320;48.804;9.252;2022-09-01T15:02:41;5.07;;;3.35;;
70733;SDS011;58320;48.804;9.252;2022-09-01T15:05:08;5.55;;;2.88;;
70733;SDS011;58320;48.804;9.252;2022-09-01T15:07:35;4.05;;;2.80;;
70733;SDS011;58320;48.804;9.252;2022-09-01T15:10:02;4.53;;;3.05;;
70733;SDS011;58320;48.804;9.252;2022-09-01T15:12:31;3.50;;;2.30;;
70733;SDS011;58320;48.804;9.252;2022-09-01T15:14:57;4.00;;;3.30;;
70733;SDS011;58320;48.804;9.252;2022-09-01T15:17:24;5.40;;;3.80;;
70733;SDS011;58320;48.804;9.252;2022-09-01T15:19:52;4.27;;;3.13;;
70733;SDS011;58320;48.804;9.252;2022-09-01T15:22:18;4.35;;;2.90;;
70733;SDS011;58320;48.804;9.252;2022-09-01T15:24:44;3.60;;;2.80;;
70733;SDS011;58320;48.804;9.252;2022-09-01T15:27:10;3.92;;;3.08;;
70733;SDS011;58320;48.804;9.252;2022-09-01T15:29:36;4.90;;;2.63;;
70733;SDS011;58320;48.804;9.252;2022-09-01T15:32:09;4.20;;;3.20;;
70733;SDS011;58320;48.804;9.252;2022-09-01T15:34:40;3.53;;;2.67;;
70733;SDS011;58320;48.804;9.252;2022-09-01T15:37:06;4.00;;;2.47;;
70733;SDS011;58320;48.804;9.252;2022-09-01T15:39:33;5.13;;;3.20;;
70733;SDS011;58320;48.804;9.252;2022-09-01T15:41:58;3.70;;;3.00;;
70733;SDS011;58320;48.804;9.252;2022-09-01T15:44:27;3.50;;;2.80;;
70733;SDS011;58320;48.804;9.252;2022-09-01T15:46:53;3.95;;;2.75;;
70733;SDS011;58320;48.804;9.252;2022-09-01T15:49:19;4.75;;;3.00;;
70733;SDS011;58320;48.804;9.252;2022-09-01T15:51:45;4.50;;;3.20;;
70733;SDS011;58320;48.804;9.252;2022-09-01T15:54:15;4.45;;;3.22;;
70733;SDS011;58320;48.804;9.252;2022-09-01T15:56:44;4.53;;;3.30;;
70733;SDS011;58320;48.804;9.252;2022-09-01T15:59:11;4.57;;;3.65;;
70733;SDS011;58320;48.804;9.252;2022-09-01T16:01:41;5.83;;;3.23;;
70733;SDS011;58320;48.804;9.252;2022-09-01T16:04:10;4.13;;;3.23;;
70733;SDS011;58320;48.804;9.252;2022-09-01T16:06:41;4.22;;;3.40;;
70733;SDS011;58320;48.804;9.252;2022-09-01T16:09:08;4.30;;;3.10;;
70733;SDS011;58320;48.804;9.252;2022-09-01T16:11:34;3.95;;;2.92;;
70733;SDS011;58320;48.804;9.252;2022-09-01T16:14:03;4.10;;;2.90;;
70733;SDS011;58320;48.804;9.252;2022-09-01T16:19:26;4.40;;;3.30;;
70733;SDS011;58320;48.804;9.252;2022-09-01T16:24:48;4.50;;;3.20;;